Appleton, MN

3:31 PM CDT on May 25, 2017 (GMT -0500)
Appleton Municipal

Weather History for KAQP - June, 2013

Change the Weather History Date:

Tuesday, June 18, 2013

  Actual Average Record
Temperature  
Mean Temperature 66 °F -  
Max Temperature 78 °F 75 °F 89 °F (2016)
Min Temperature 55 °F 54 °F 46 °F (2004)
Cooling Degree Days 2    
Growing Degree Days 16 (Base 50)    
Moisture  
Dew Point 55 °F    
Average Humidity 66    
Maximum Humidity 94    
Minimum Humidity 39    
Precipitation  
Precipitation 0.26 in - - ()
Sea Level Pressure  
Sea Level Pressure 30.04 in    
Wind  
Wind Speed 6 mph (ESE)    
Max Wind Speed 10 mph    
Max Gust Speed -    
Visibility 10 miles    
Events Rain , Thunderstorm    
Averages and records for this station are not official NWS values.
T = Trace of Precipitation, MM = Missing Value Source: NWS Daily Summary

Daily Weather History Graph

Daily Weather History Graph

Search for Another Location

Airport or City:

Trip Planner

Search our weather history database for the weather conditions in past years. The results will help you decide how hot, cold, wet, or windy it might be!

Date:

Astronomy

Jun. 18, 2013 Rise Set
Actual Time 5:35 AM CDT 9:14 PM CDT
Civil Twilight 4:58 AM CDT 9:52 PM CDT
Nautical Twilight 4:07 AM CDT 10:42 PM CDT
Astronomical Twilight 3:00 AM CDT 11:50 PM CDT
Moon 3:49 PM CDT (6/18) 1:57 AM CDT (6/18)
Length of Visible Light 16h 54m
Length of Day
15h 38m
Waxing Gibbous, 71% of the Moon is Illuminated
Jun 18
Waxing Gibbous
Jun 23
Full
Jun 29
Last Quarter
Jul 8
New
Jul 15
First Quarter

Hourly Weather History & Observations

Time (CDT) Temp. Dew Point Humidity Pressure Visibility Wind Dir Wind Speed Gust Speed Precip Events Conditions
12:14 AM 62.6 °F 59.0 °F 88% 30.02 in 10.0 mi ESE 9.2 mph - 0.19 in Rain Heavy Rain
12:34 AM 62.6 °F 59.0 °F 88% 30.02 in 10.0 mi East 9.2 mph - 0.19 in Thunderstorm Overcast
12:53 AM 62.6 °F 59.0 °F 88% 30.02 in 10.0 mi ENE 5.8 mph - 0.22 in Rain Light Rain
1:13 AM 64.4 °F 60.8 °F 88% 30.02 in 10.0 mi East 8.1 mph - 0.02 in Rain Rain
1:33 AM 64.4 °F 60.8 °F 88% 30.02 in 10.0 mi East 9.2 mph - 0.03 in Rain Rain
1:54 AM 64.4 °F 60.8 °F 88% 30.02 in 10.0 mi East 9.2 mph - 0.03 in Thunderstorm Mostly Cloudy
2:13 AM 62.6 °F 59.0 °F 88% 30.02 in 10.0 mi East 8.1 mph - N/A   Mostly Cloudy
2:33 AM 62.6 °F 57.2 °F 82% 30.03 in 10.0 mi East 8.1 mph - N/A   Mostly Cloudy
2:53 AM 62.6 °F 57.2 °F 82% 30.04 in 10.0 mi ENE 10.4 mph - N/A   Scattered Clouds
3:13 AM 60.8 °F 55.4 °F 82% 30.04 in 10.0 mi ENE 8.1 mph - N/A   Clear
3:33 AM 59.0 °F 55.4 °F 88% 30.04 in 10.0 mi East 9.2 mph - N/A   Clear
3:53 AM 59.0 °F 55.4 °F 88% 30.05 in 10.0 mi ENE 9.2 mph - N/A   Clear
4:13 AM 57.2 °F 55.4 °F 94% 30.05 in 10.0 mi ENE 6.9 mph - N/A   Clear
4:33 AM 57.2 °F 55.4 °F 94% 30.05 in 10.0 mi Calm Calm - N/A   Clear
4:53 AM 55.4 °F 53.6 °F 94% 30.06 in 10.0 mi Calm Calm - N/A   Clear
5:14 AM 57.2 °F 53.6 °F 88% 30.07 in 10.0 mi NE 4.6 mph - N/A   Clear
5:34 AM 55.4 °F 53.6 °F 94% 30.08 in 10.0 mi Calm Calm - N/A   Clear
5:53 AM 55.4 °F 53.6 °F 94% 30.08 in 10.0 mi East 3.5 mph - N/A   Clear
6:15 AM 55.4 °F 53.6 °F 94% 30.09 in 10.0 mi East 5.8 mph - N/A   Clear
6:34 AM 57.2 °F 53.6 °F 88% 30.09 in 10.0 mi ENE 4.6 mph - N/A   Clear
6:53 AM 57.2 °F 53.6 °F 88% 30.08 in 10.0 mi East 4.6 mph - N/A   Clear
7:13 AM 59.0 °F 53.6 °F 82% 30.08 in 10.0 mi ENE 8.1 mph - N/A   Clear
7:33 AM 59.0 °F 51.8 °F 77% 30.09 in 10.0 mi East 6.9 mph - N/A   Clear
7:54 AM 60.8 °F 51.8 °F 72% 30.09 in 10.0 mi East 8.1 mph - N/A   Clear
8:14 AM 60.8 °F 51.8 °F 72% 30.09 in 10.0 mi ENE 6.9 mph - 0.01 in   Clear
8:34 AM 62.6 °F 53.6 °F 72% 30.09 in 10.0 mi ESE 6.9 mph - 0.01 in   Clear
8:53 AM 62.6 °F 53.6 °F 72% 30.09 in 10.0 mi ENE 3.5 mph - 0.01 in   Clear
9:14 AM 62.6 °F 53.6 °F 72% 30.09 in 10.0 mi East 3.5 mph - N/A   Clear
9:33 AM 64.4 °F 55.4 °F 73% 30.09 in 10.0 mi ESE 6.9 mph - N/A   Clear
9:53 AM 64.4 °F 53.6 °F 68% 30.09 in 10.0 mi Calm Calm - N/A   Clear
10:13 AM 66.2 °F 55.4 °F 68% 30.09 in 10.0 mi NE 3.5 mph - N/A   Clear
10:33 AM 68.0 °F 55.4 °F 64% 30.09 in 10.0 mi NE 3.5 mph - N/A   Clear
10:53 AM 68.0 °F 55.4 °F 64% 30.09 in 10.0 mi East 4.6 mph - N/A   Clear
11:13 AM 69.8 °F 55.4 °F 60% 30.09 in 10.0 mi Calm Calm - N/A   Clear
11:33 AM 69.8 °F 55.4 °F 60% 30.09 in 10.0 mi NE 3.5 mph - N/A   Clear
11:53 AM 71.6 °F 55.4 °F 57% 30.08 in 10.0 mi Calm Calm - N/A   Clear
12:14 PM 71.6 °F 53.6 °F 53% 30.08 in 10.0 mi Calm Calm - N/A   Clear
12:33 PM 71.6 °F 55.4 °F 57% 30.07 in 10.0 mi Calm Calm - N/A   Clear
12:53 PM 73.4 °F 55.4 °F 53% 30.07 in 10.0 mi ENE 4.6 mph - N/A   Clear
1:14 PM 73.4 °F 55.4 °F 53% 30.07 in 10.0 mi ENE 6.9 mph - N/A   Clear
1:33 PM 75.2 °F 55.4 °F 50% 30.06 in 10.0 mi East 3.5 mph - N/A   Clear
1:53 PM 75.2 °F 53.6 °F 47% 30.04 in 10.0 mi East 10.4 mph - N/A   Clear
2:13 PM 75.2 °F 53.6 °F 47% 30.04 in 10.0 mi SE 6.9 mph - N/A   Clear
2:33 PM 77.0 °F 51.8 °F 41% 30.04 in 10.0 mi East 5.8 mph - N/A   Clear
2:54 PM 77.0 °F 53.6 °F 44% 30.04 in 10.0 mi ESE 5.8 mph - N/A   Clear
3:14 PM 77.0 °F 51.8 °F 41% 30.03 in 10.0 mi Calm Calm - N/A   Clear
3:33 PM 77.0 °F 53.6 °F 44% 30.03 in 10.0 mi SSE 4.6 mph - N/A   Scattered Clouds
3:54 PM 78.8 °F 51.8 °F 39% 30.02 in 10.0 mi SE 3.5 mph - N/A   Clear
4:13 PM 78.8 °F 53.6 °F 42% 30.02 in 10.0 mi SSW 4.6 mph - N/A   Clear
4:33 PM 78.8 °F 55.4 °F 44% 30.02 in 10.0 mi SSE 6.9 mph - N/A   Scattered Clouds
4:53 PM 78.8 °F 53.6 °F 42% 30.02 in 10.0 mi Calm Calm - N/A   Scattered Clouds
5:14 PM 78.8 °F 53.6 °F 42% 30.01 in 10.0 mi South 3.5 mph - N/A   Clear
5:33 PM 78.8 °F 55.4 °F 44% 30.01 in 10.0 mi SSE 6.9 mph - N/A   Clear
5:51 PM 78.8 °F 55.4 °F 44% 30.01 in 10.0 mi South 6.9 mph - N/A   Clear
6:55 PM 78.8 °F 53.6 °F 42% 30.00 in - Calm Calm - N/A   Unknown
7:14 PM 78.8 °F 53.6 °F 42% 29.99 in 10.0 mi SSE 3.5 mph - N/A   Clear
7:33 PM 77.0 °F 53.6 °F 44% 29.99 in 10.0 mi SE 5.8 mph - N/A   Clear
7:53 PM 75.2 °F 53.6 °F 47% 29.98 in 10.0 mi SE 4.6 mph - N/A   Clear
8:13 PM 75.2 °F 53.6 °F 47% 29.98 in 10.0 mi SSE 4.6 mph - N/A   Clear
8:34 PM 73.4 °F 55.4 °F 53% 29.98 in 10.0 mi ESE 3.5 mph - N/A   Clear
8:53 PM 73.4 °F 55.4 °F 53% 29.98 in 10.0 mi SE 3.5 mph - N/A   Clear
9:14 PM 71.6 °F 55.4 °F 57% 29.98 in 10.0 mi SE 4.6 mph - N/A   Clear
9:33 PM 69.8 °F 55.4 °F 60% 29.99 in 10.0 mi SSE 5.8 mph - N/A   Clear
9:54 PM 69.8 °F 55.4 °F 60% 30.00 in 10.0 mi SE 5.8 mph - N/A   Clear
10:14 PM 68.0 °F 55.4 °F 64% 30.00 in 10.0 mi SE 4.6 mph - N/A   Unknown
10:33 PM 66.2 °F 55.4 °F 68% 30.01 in 10.0 mi North - - N/A   Clear
10:53 PM 66.2 °F 55.4 °F 68% 30.00 in 10.0 mi SE 5.8 mph - N/A   Clear
11:13 PM 66.2 °F 57.2 °F 73% 30.00 in 10.0 mi SE 6.9 mph - N/A   Clear
11:33 PM 68.0 °F 57.2 °F 68% 30.00 in 10.0 mi SE 5.8 mph - N/A   Scattered Clouds
11:53 PM 66.2 °F 57.2 °F 73% 30.00 in 10.0 mi SE 8.1 mph - N/A   Scattered Clouds